Webkamera more information My webcam


Lynradar more information blitzortung!


Nedbørsradar more information rain snow radar



Nære METAR værraporter

   
ENGM - Oslo
Oppdatert: 25-11-2020 11:50
For det meste Overskyet  
For det meste Overskyet  
   Vind: Sør 7.2 m/s
Vind: Sør 7.2 m/s
Temperatur: 9°C
Wind Chill: 6°C
Duggpunkt: 6°C
Luftfuktighet: 82%
Barometer: 1003 hPa
Skyer: For det meste Overskyet
Sikt: More than 10 km
Detaljer skyer: For det meste Overskyet 487.7 m
ENGM 251050Z 19014KT 160V220 9999 BKN016 09/06 Q1003 TEMPO 20015G25KT
ENTO - Sandefjord
Oppdatert: 25-11-2020 11:20
Overskyet  
Overskyet  
   Vind: SSV 9.3 m/s
Vind: SSV 9.3 m/s
Temperatur: 10°C
Wind Chill: 6°C
Duggpunkt: 9°C
Luftfuktighet: 94%
Barometer: 1006 hPa
Skyer: Overskyet
Sikt: 8 km
Detaljer skyer: Overskyet 243.8 m
ENTO 251020Z 20018KT 8000 OVC008 10/09 Q1006 TEMPO 21018G28KT
ENNO - Notodden
Oppdatert: 25-11-2020 11:20
Regnbyger i området, For det meste Overskyet  
Regnbyger i området, For det meste Overskyet  
   Vind: SØ 4.1 m/s
Vind: SØ 4.1 m/s
Temperatur: 10°C
Wind Chill: 8°C
Duggpunkt: 7°C
Luftfuktighet: 82%
Barometer: 1004 hPa
Skyer: For det meste Overskyet
Sikt: More than 10 km
Detaljer skyer: Noen skyer 457.2 m,
For det meste Overskyet 914.4 m
ENNO 251020Z 13008KT 9999 VCSH FEW015 BKN030 10/07 Q1004
ENRY - Rygge
Oppdatert: 25-11-2020 11:20
Overskyet  
Overskyet  
   Vind: SSV 8.2 m/s
Vind: SSV 8.2 m/s
Temperatur: 10°C
Wind Chill: 7°C
Duggpunkt: 8°C
Luftfuktighet: 88%
Barometer: 1007 hPa
Skyer: Overskyet
Sikt: More than 10 km
Detaljer skyer: Overskyet 304.8 m
ENRY 251020Z 20016KT 9999 OVC010 10/08 Q1007 TEMPO 20016G26KT
ENSN - Skien
Oppdatert: 09-11-2015 09:50
Oppdatert, se klokkeslett
Klart  
Klart  
   Vind: SSV 5.1 m/s<br />Gust to 5.1 m/s
Vind: SSV 5.1 m/s
Gust to 5.1 m/s
Temperatur: 7°C
Wind Chill: 4°C
Duggpunkt: 3°C
Luftfuktighet: 76%
Barometer: 1000 hPa
Sikt: More than 10 km
Detaljer skyer: Klart
ENSN 090850Z 20010G22KT 150V240 CAVOK 07/03 Q1000
ENFG - Fagernes
Oppdatert: 22-04-2018 10:50
Oppdatert, se klokkeslett
Klart  
Klart  
   Vind: Sør 3.6 m/s
Vind: Sør 3.6 m/s
Temperatur: 6°C
Wind Chill: 3°C
Duggpunkt: -3°C
Luftfuktighet: 53%
Barometer: 1014 hPa
Sikt: More than 10 km
Detaljer skyer: Klart
ENFG 220850Z 19007KT CAVOK 06/M03 Q1014

Script utviklet av  Saratoga-weather.org Tilpasset for tamplaten av  Weerstation Leuven

Du finner min vær info også på:

European Weather Network